Time;durP1;ratioP1;P1;durP2;ratioP2;P2;SDS_P1;SDS_P2;PMS_P1;PMS_P2;Temp;Humidity;BMP_temperature;BMP_pressure;BME280_temperature;BME280_humidity;BME280_pressure;Samples;Min_cycle;Max_cycle;Signal;HPM_P1;HPM_P2
2023/06/21 00:01:13;;;;;;;9.02;4.80;;;22.30;99.90;;;;;;4998375;28;20045;-71
2023/06/21 00:10:24;;;;;;;9.90;5.72;;;22.30;99.90;;;;;;4998670;28;20102;-71
2023/06/21 00:12:50;;;;;;;11.38;5.85;;;22.20;99.90;;;;;;4998183;28;20058;-71
2023/06/21 00:15:16;;;;;;;10.55;6.80;;;22.20;99.90;;;;;;4997574;28;20030;-71
2023/06/21 00:17:42;;;;;;;12.70;6.47;;;21.90;99.90;;;;;;4997597;28;20030;-71
2023/06/21 00:20:09;;;;;;;8.43;6.65;;;21.70;99.90;;;;;;4997347;28;20116;-71
2023/06/21 00:22:35;;;;;;;11.98;5.88;;;21.90;99.90;;;;;;4998042;28;20072;-71
2023/06/21 00:25:02;;;;;;;8.02;5.88;;;21.90;99.90;;;;;;4997506;28;20052;-71
2023/06/21 00:27:28;;;;;;;10.10;6.28;;;22.00;99.90;;;;;;4997075;28;20109;-71
2023/06/21 00:29:54;;;;;;;11.13;6.45;;;21.80;99.90;;;;;;4998231;28;20033;-71
2023/06/21 00:32:19;;;;;;;9.07;6.40;;;21.80;99.90;;;;;;4997466;28;20113;-71
2023/06/21 00:34:46;;;;;;;10.27;5.90;;;21.70;99.90;;;;;;4997300;28;20030;-71
2023/06/21 00:37:15;;;;;;;8.60;6.10;;;21.70;99.90;;;;;;4996712;28;20068;-71
2023/06/21 00:39:41;;;;;;;14.15;6.85;;;21.70;99.90;;;;;;4996745;28;20057;-71
2023/06/21 00:42:08;;;;;;;9.98;6.90;;;21.80;99.90;;;;;;4997407;28;20030;-71
2023/06/21 00:44:33;;;;;;;10.98;6.68;;;21.80;99.90;;;;;;4997563;28;20033;-71
2023/06/21 00:46:58;;;;;;;10.77;6.25;;;21.90;99.90;;;;;;4996738;28;20022;-71
2023/06/21 00:49:25;;;;;;;11.70;6.53;;;21.80;99.90;;;;;;4997561;28;20029;-71
2023/06/21 00:51:57;;;;;;;10.55;6.57;;;21.80;99.90;;;;;;4997738;28;20057;-71
2023/06/21 00:54:25;;;;;;;9.93;6.28;;;21.80;99.90;;;;;;4996797;28;20037;-71
2023/06/21 00:56:51;;;;;;;8.15;6.55;;;21.90;99.90;;;;;;4995971;28;20121;-71
2023/06/21 00:59:16;;;;;;;12.43;6.20;;;21.90;99.90;;;;;;4996760;28;20065;-71
2023/06/21 01:01:42;;;;;;;10.20;6.28;;;21.90;99.90;;;;;;4996543;28;20023;-71
2023/06/21 01:04:09;;;;;;;10.48;6.47;;;22.00;99.90;;;;;;4996648;28;20022;-71
2023/06/21 01:06:50;;;;;;;10.55;6.53;;;22.00;99.90;;;;;;4996692;28;20023;-71
2023/06/21 01:09:45;;;;;;;8.95;6.32;;;21.90;99.90;;;;;;4997390;28;20061;-71
2023/06/21 01:12:32;;;;;;;9.82;6.63;;;21.90;99.90;;;;;;4996512;28;20057;-71
2023/06/21 01:15:04;;;;;;;9.52;6.47;;;21.80;99.90;;;;;;4997375;28;20023;-71
2023/06/21 01:17:34;;;;;;;12.07;6.68;;;21.90;99.90;;;;;;4996392;28;20026;-71
2023/06/21 01:20:02;;;;;;;11.13;6.90;;;21.90;99.90;;;;;;4997631;28;20026;-71
2023/06/21 01:22:42;;;;;;;16.88;7.38;;;22.00;99.90;;;;;;4997305;28;20033;-69
2023/06/21 01:25:14;;;;;;;12.40;6.40;;;22.30;99.90;;;;;;4997159;28;20119;-68
2023/06/21 01:28:02;;;;;;;15.65;7.80;;;22.30;99.90;;;;;;4996521;28;20061;-69
2023/06/21 01:30:31;;;;;;;10.27;6.88;;;22.30;99.90;;;;;;4996917;28;20022;-69
2023/06/21 01:32:56;;;;;;;13.18;6.60;;;22.20;99.90;;;;;;4996572;28;20029;-69
2023/06/21 01:35:25;;;;;;;8.88;6.32;;;22.10;99.90;;;;;;4996527;28;20031;-68
2023/06/21 01:37:52;;;;;;;11.45;6.72;;;22.10;99.90;;;;;;4997184;28;20034;-71
2023/06/21 01:40:19;;;;;;;11.38;6.90;;;22.00;99.90;;;;;;4997497;28;20060;-70
2023/06/21 01:42:45;;;;;;;13.20;7.13;;;22.00;99.90;;;;;;4996244;28;20038;-71
2023/06/21 01:45:11;;;;;;;15.55;7.32;;;22.00;99.90;;;;;;4996138;28;20075;-70
2023/06/21 01:47:38;;;;;;;16.50;7.43;;;22.00;99.90;;;;;;4996339;28;20084;-71
2023/06/21 01:50:07;;;;;;;11.98;7.45;;;22.00;99.90;;;;;;4996570;28;20033;-70
2023/06/21 01:52:34;;;;;;;11.20;6.80;;;22.00;99.90;;;;;;4996178;28;20026;-71
2023/06/21 01:55:00;;;;;;;18.70;7.53;;;22.20;99.90;;;;;;4996283;28;20054;-71
2023/06/21 01:57:27;;;;;;;16.45;7.25;;;22.40;99.90;;;;;;4996005;28;20023;-71
2023/06/21 01:59:53;;;;;;;14.95;7.80;;;22.20;99.90;;;;;;4996098;28;20045;-71
2023/06/21 02:02:22;;;;;;;10.40;6.88;;;22.20;99.90;;;;;;4997302;28;20026;-71
2023/06/21 02:04:48;;;;;;;15.77;7.18;;;22.30;99.90;;;;;;4996299;28;20026;-71
2023/06/21 02:07:15;;;;;;;14.48;7.38;;;22.30;99.90;;;;;;4996333;28;20029;-71
2023/06/21 02:09:46;;;;;;;14.25;7.30;;;22.40;99.90;;;;;;4999210;28;20022;-71
2023/06/21 02:12:11;;;;;;;12.27;6.55;;;22.50;99.90;;;;;;4999662;28;20030;-71
2023/06/21 02:14:38;;;;;;;11.93;7.60;;;22.40;99.90;;;;;;5000310;28;20037;-71
2023/06/21 02:17:04;;;;;;;10.90;6.63;;;22.40;99.90;;;;;;4999278;28;20030;-71
2023/06/21 02:19:29;;;;;;;10.40;7.28;;;22.30;99.90;;;;;;4999763;28;20027;-71
2023/06/21 02:21:55;;;;;;;11.95;7.75;;;22.20;99.90;;;;;;5000462;28;20041;-71
2023/06/21 02:24:20;;;;;;;14.23;7.28;;;22.20;99.90;;;;;;4999295;28;20052;-71
2023/06/21 02:26:46;;;;;;;16.05;7.30;;;22.00;99.90;;;;;;4999098;28;20026;-71
2023/06/21 02:29:11;;;;;;;13.45;6.80;;;22.10;99.90;;;;;;4999186;28;20031;-71
2023/06/21 02:31:37;;;;;;;10.40;7.60;;;22.10;99.90;;;;;;5000061;28;20124;-71
2023/06/21 02:34:02;;;;;;;12.95;6.97;;;22.00;99.90;;;;;;5000000;28;20113;-70
2023/06/21 02:36:29;;;;;;;13.82;6.93;;;22.00;99.90;;;;;;4999045;28;20026;-71
2023/06/21 02:38:55;;;;;;;17.48;8.15;;;22.10;99.90;;;;;;4999048;28;20065;-71
2023/06/21 02:41:21;;;;;;;12.30;7.05;;;22.20;99.90;;;;;;4999959;28;20029;-71
2023/06/21 02:43:46;;;;;;;12.18;7.82;;;22.20;99.90;;;;;;4999287;28;20023;-71
2023/06/21 02:46:12;;;;;;;13.15;8.55;;;22.30;99.90;;;;;;4999818;28;20027;-71
2023/06/21 02:48:37;;;;;;;18.27;7.78;;;22.40;99.90;;;;;;4999243;28;20023;-71
2023/06/21 02:51:03;;;;;;;14.55;7.82;;;22.30;99.90;;;;;;4998800;28;20025;-71
2023/06/21 02:53:28;;;;;;;14.93;7.20;;;22.20;99.90;;;;;;4999434;28;20034;-71
2023/06/21 02:55:54;;;;;;;13.02;8.18;;;22.30;99.90;;;;;;4999027;28;20081;-71
2023/06/21 02:58:20;;;;;;;21.55;8.45;;;22.30;99.90;;;;;;4999489;28;20022;-71
2023/06/21 03:00:45;;;;;;;16.40;7.88;;;22.20;99.90;;;;;;4999238;28;20030;-71
2023/06/21 03:03:11;;;;;;;14.50;7.82;;;22.20;99.90;;;;;;4998560;28;20039;-71
2023/06/21 03:05:37;;;;;;;16.05;8.50;;;22.20;99.90;;;;;;4998868;28;20018;-71
2023/06/21 03:08:04;;;;;;;21.17;8.50;;;22.10;99.90;;;;;;4999266;28;20089;-71
2023/06/21 03:10:32;;;;;;;15.68;7.93;;;22.00;99.90;;;;;;4998944;28;20022;-71
2023/06/21 03:12:58;;;;;;;14.13;7.65;;;22.00;99.90;;;;;;4998386;28;20053;-71
2023/06/21 03:15:24;;;;;;;11.45;7.18;;;22.00;99.90;;;;;;4998358;28;20072;-71
2023/06/21 03:17:49;;;;;;;15.68;7.75;;;21.90;99.90;;;;;;4998591;28;20060;-71
2023/06/21 03:20:15;;;;;;;16.67;8.60;;;21.90;99.90;;;;;;4997530;28;20053;-71
2023/06/21 03:22:42;;;;;;;14.20;7.07;;;21.80;99.90;;;;;;4999122;28;20054;-71
2023/06/21 03:25:12;;;;;;;21.17;8.52;;;21.70;99.90;;;;;;4998146;28;20023;-70
2023/06/21 03:27:37;;;;;;;13.00;8.25;;;21.60;99.90;;;;;;4998145;28;20019;-71
2023/06/21 03:30:05;;;;;;;16.67;8.48;;;21.50;99.90;;;;;;4998052;28;20022;-71
2023/06/21 03:32:30;;;;;;;17.25;8.27;;;21.40;99.90;;;;;;4998535;28;20026;-71
2023/06/21 03:34:59;;;;;;;14.23;8.25;;;21.30;99.90;;;;;;4998963;28;20080;-71
2023/06/21 03:37:26;;;;;;;14.85;8.15;;;21.20;99.90;;;;;;4997851;28;20033;-71
2023/06/21 03:39:51;;;;;;;21.13;8.55;;;21.10;99.90;;;;;;4997958;28;20073;-71
2023/06/21 03:42:17;;;;;;;18.90;8.45;;;21.00;99.90;;;;;;4997762;28;20057;-71
2023/06/21 03:44:43;;;;;;;15.55;8.57;;;21.00;99.90;;;;;;4998619;28;20050;-71
2023/06/21 03:47:10;;;;;;;17.42;8.93;;;21.00;99.90;;;;;;4998087;28;20113;-71
2023/06/21 03:49:36;;;;;;;16.52;8.77;;;21.00;99.90;;;;;;4997737;28;20026;-71
2023/06/21 03:52:01;;;;;;;12.35;8.45;;;21.00;99.90;;;;;;4998405;28;20049;-71
2023/06/21 03:54:27;;;;;;;15.75;8.00;;;20.90;99.90;;;;;;4997952;28;20033;-71
2023/06/21 03:56:52;;;;;;;20.25;8.98;;;21.00;99.90;;;;;;4997522;28;20068;-71
2023/06/21 03:59:18;;;;;;;13.50;8.43;;;21.10;99.90;;;;;;4997337;28;20071;-71
2023/06/21 04:01:43;;;;;;;15.73;7.97;;;21.40;99.90;;;;;;4997312;28;20026;-71
2023/06/21 04:04:09;;;;;;;18.25;8.02;;;21.60;99.90;;;;;;4998341;28;20022;-71
2023/06/21 04:06:34;;;;;;;14.50;7.57;;;21.70;99.90;;;;;;4998662;28;20029;-71
2023/06/21 04:09:00;;;;;;;13.68;8.10;;;21.80;99.90;;;;;;4997357;28;20026;-71
2023/06/21 04:11:25;;;;;;;15.15;8.38;;;21.90;99.90;;;;;;4997208;28;20030;-71
2023/06/21 04:13:51;;;;;;;16.63;9.25;;;21.90;99.90;;;;;;4997255;28;20018;-71
2023/06/21 04:16:16;;;;;;;17.38;9.00;;;21.80;99.90;;;;;;4997162;28;20029;-71
2023/06/21 04:18:42;;;;;;;12.73;8.98;;;21.70;99.90;;;;;;4997967;28;20031;-72
2023/06/21 04:21:08;;;;;;;18.95;9.80;;;21.60;99.90;;;;;;4997979;28;20027;-72
2023/06/21 04:23:33;;;;;;;13.68;9.95;;;21.50;99.90;;;;;;4998011;28;20026;-72
2023/06/21 04:25:59;;;;;;;15.77;9.63;;;21.40;99.90;;;;;;4997038;28;20129;-72
2023/06/21 04:28:25;;;;;;;17.20;9.38;;;21.30;99.90;;;;;;4998112;28;20025;-72
2023/06/21 04:30:57;;;;;;;18.92;10.05;;;21.30;99.90;;;;;;4997713;28;20073;-72
2023/06/21 04:33:22;;;;;;;15.55;9.63;;;21.30;99.90;;;;;;4997241;28;20061;-72
2023/06/21 04:35:48;;;;;;;16.08;8.93;;;21.30;99.90;;;;;;4997024;28;20038;-70
2023/06/21 04:38:13;;;;;;;21.50;9.23;;;21.40;99.90;;;;;;4997496;28;20030;-70
2023/06/21 04:40:39;;;;;;;16.65;9.88;;;21.40;99.90;;;;;;4997132;28;20026;-70
2023/06/21 04:43:06;;;;;;;13.75;9.02;;;21.40;99.90;;;;;;4997607;28;20030;-70
2023/06/21 04:45:32;;;;;;;21.60;9.35;;;21.40;99.90;;;;;;4997591;28;20019;-70
2023/06/21 04:47:57;;;;;;;17.20;8.25;;;21.50;99.90;;;;;;4997245;28;20021;-70
2023/06/21 04:50:23;;;;;;;14.90;8.65;;;21.50;99.90;;;;;;4997205;28;20042;-70
2023/06/21 04:52:57;;;;;;;17.67;8.05;;;21.50;99.90;;;;;;4997046;28;20049;-70
2023/06/21 04:55:23;;;;;;;17.83;8.82;;;21.60;99.90;;;;;;4997598;28;20026;-70
2023/06/21 04:57:49;;;;;;;15.27;8.45;;;21.70;99.90;;;;;;4996622;28;20034;-72
2023/06/21 05:00:16;;;;;;;17.83;9.02;;;21.70;99.90;;;;;;4996983;28;20076;-72
2023/06/21 05:02:42;;;;;;;17.58;8.15;;;21.60;99.90;;;;;;4996822;28;20033;-72
2023/06/21 05:05:08;;;;;;;12.93;8.68;;;21.70;99.90;;;;;;4996808;28;20112;-72
2023/06/21 05:07:33;;;;;;;14.88;8.32;;;21.60;99.90;;;;;;4997335;28;20064;-72
2023/06/21 05:09:59;;;;;;;24.85;9.57;;;21.70;99.90;;;;;;4997204;28;20118;-72
2023/06/21 05:12:24;;;;;;;15.20;9.10;;;21.70;99.90;;;;;;4996579;28;20064;-72
2023/06/21 05:14:50;;;;;;;24.40;9.02;;;21.70;99.90;;;;;;4997335;28;20133;-72
2023/06/21 05:17:16;;;;;;;16.88;8.77;;;21.70;99.90;;;;;;4996364;28;20054;-72
2023/06/21 05:19:42;;;;;;;19.75;9.57;;;21.70;99.90;;;;;;4996838;28;20077;-72
2023/06/21 05:22:08;;;;;;;18.35;9.63;;;21.60;99.90;;;;;;4997386;28;20034;-72
2023/06/21 05:24:34;;;;;;;12.23;8.15;;;21.60;99.90;;;;;;4997574;28;20022;-72
2023/06/21 05:26:59;;;;;;;15.68;8.45;;;21.70;99.90;;;;;;4996650;28;20022;-72
2023/06/21 05:29:25;;;;;;;17.90;8.63;;;21.70;99.90;;;;;;4996700;28;20030;-72
2023/06/21 05:31:51;;;;;;;13.98;7.80;;;21.70;99.90;;;;;;4997148;28;20032;-72
2023/06/21 05:34:16;;;;;;;12.40;7.78;;;21.70;99.90;;;;;;4996356;28;20062;-73
2023/06/21 05:36:42;;;;;;;20.45;9.38;;;21.70;99.90;;;;;;4996522;28;20038;-70
2023/06/21 05:39:08;;;;;;;12.38;7.95;;;21.90;99.90;;;;;;4996578;28;20053;-70
2023/06/21 05:41:33;;;;;;;14.65;7.50;;;21.90;99.90;;;;;;4997074;28;20026;-69
2023/06/21 05:43:59;;;;;;;12.52;6.88;;;22.00;99.90;;;;;;4998564;28;20018;-70
2023/06/21 05:46:24;;;;;;;15.88;7.35;;;22.00;99.90;;;;;;5000104;28;20022;-70
2023/06/21 05:48:50;;;;;;;11.02;6.95;;;22.10;99.90;;;;;;5000263;28;20162;-70
2023/06/21 05:51:15;;;;;;;11.80;7.28;;;22.20;99.90;;;;;;5000972;28;20046;-70
2023/06/21 05:53:41;;;;;;;14.75;6.88;;;22.30;99.90;;;;;;5000446;28;20101;-70
2023/06/21 05:56:06;;;;;;;15.68;6.50;;;22.40;99.90;;;;;;4999692;28;20114;-70
2023/06/21 05:58:32;;;;;;;8.35;6.47;;;22.40;99.90;;;;;;4999817;28;20050;-70
2023/06/21 06:00:57;;;;;;;13.10;7.05;;;22.40;99.90;;;;;;5000132;28;20042;-70
2023/06/21 06:03:24;;;;;;;14.27;6.97;;;22.40;99.90;;;;;;5000208;28;20026;-70
2023/06/21 06:05:52;;;;;;;8.90;6.45;;;22.40;99.90;;;;;;4999652;28;20023;-70
2023/06/21 06:08:17;;;;;;;10.25;6.72;;;22.40;99.90;;;;;;4999616;28;20029;-70
2023/06/21 06:10:43;;;;;;;16.58;6.85;;;22.40;99.90;;;;;;5000423;28;20027;-69
2023/06/21 06:13:09;;;;;;;11.20;7.22;;;22.50;99.90;;;;;;5000089;28;20026;-69
2023/06/21 06:15:34;;;;;;;14.10;7.38;;;22.50;99.90;;;;;;5000318;28;20030;-71
2023/06/21 06:18:00;;;;;;;11.00;6.88;;;22.50;99.90;;;;;;4999463;28;20088;-72
2023/06/21 06:20:26;;;;;;;16.92;7.18;;;22.50;99.90;;;;;;4999789;28;20154;-72
2023/06/21 06:22:52;;;;;;;14.27;6.53;;;22.50;99.90;;;;;;4999308;28;20023;-73
2023/06/21 06:25:18;;;;;;;15.00;6.45;;;22.60;99.90;;;;;;4999513;28;20023;-72
2023/06/21 06:27:44;;;;;;;15.55;6.85;;;22.60;99.90;;;;;;4999618;28;20026;-72
2023/06/21 06:30:10;;;;;;;11.85;6.88;;;22.70;99.90;;;;;;4999534;28;20023;-72
2023/06/21 06:32:36;;;;;;;10.27;7.15;;;22.80;99.90;;;;;;4999084;28;20031;-72
2023/06/21 06:35:01;;;;;;;16.48;7.82;;;22.90;99.90;;;;;;5000111;28;20023;-72
2023/06/21 06:37:27;;;;;;;14.25;8.68;;;22.90;99.90;;;;;;4998948;28;20034;-72
2023/06/21 06:39:54;;;;;;;11.38;8.20;;;22.90;99.90;;;;;;4999469;28;20046;-72
2023/06/21 06:42:20;;;;;;;15.00;7.35;;;22.70;99.90;;;;;;4999162;28;20037;-72
2023/06/21 06:44:46;;;;;;;13.32;7.85;;;22.90;99.90;;;;;;4999467;28;20121;-72
2023/06/21 06:47:12;;;;;;;10.95;6.80;;;22.90;99.90;;;;;;4998800;28;20025;-72
2023/06/21 06:49:38;;;;;;;11.05;7.20;;;23.00;99.90;;;;;;4999585;28;20022;-72
2023/06/21 06:52:04;;;;;;;10.85;6.53;;;23.00;99.90;;;;;;4999076;28;20087;-72
2023/06/21 06:54:30;;;;;;;13.38;6.68;;;23.10;99.90;;;;;;4997651;28;20058;-70
2023/06/21 06:56:55;;;;;;;15.25;7.10;;;23.10;99.90;;;;;;4998728;28;20033;-70
2023/06/21 06:59:22;;;;;;;12.30;6.80;;;23.10;99.90;;;;;;4998921;28;20034;-70
2023/06/21 07:01:47;;;;;;;15.52;6.97;;;23.00;99.90;;;;;;4998526;28;20022;-70
2023/06/21 07:04:13;;;;;;;11.50;7.22;;;23.20;99.90;;;;;;4998547;28;20027;-70
2023/06/21 07:06:38;;;;;;;11.77;6.78;;;23.20;99.90;;;;;;4998493;28;20026;-69
2023/06/21 07:09:04;;;;;;;10.93;6.47;;;23.30;99.90;;;;;;4998616;28;20029;-70
2023/06/21 07:11:29;;;;;;;10.48;6.85;;;23.30;99.90;;;;;;4998418;28;20025;-70
2023/06/21 07:13:55;;;;;;;14.18;6.63;;;23.40;99.90;;;;;;4998509;28;20030;-70
2023/06/21 07:16:20;;;;;;;11.85;6.65;;;23.40;99.90;;;;;;4998863;28;20073;-69
2023/06/21 07:18:46;;;;;;;11.63;6.53;;;23.50;99.90;;;;;;4998636;28;20031;-70
2023/06/21 07:21:12;;;;;;;8.43;5.90;;;23.30;99.90;;;;;;4998611;28;20030;-70
2023/06/21 07:23:38;;;;;;;13.45;7.75;;;23.40;99.90;;;;;;4998227;28;20057;-70
2023/06/21 07:26:03;;;;;;;14.30;6.88;;;23.50;99.90;;;;;;4998901;28;20026;-69
2023/06/21 07:28:29;;;;;;;14.48;6.57;;;23.40;99.90;;;;;;4998403;28;20018;-70
2023/06/21 07:30:55;;;;;;;11.13;6.07;;;23.50;99.90;;;;;;4998379;28;20109;-70
2023/06/21 07:33:21;;;;;;;19.23;6.40;;;23.60;99.90;;;;;;4998063;28;20026;-69
2023/06/21 07:35:47;;;;;;;11.60;6.57;;;23.60;99.90;;;;;;4998452;28;20093;-72
2023/06/21 07:38:12;;;;;;;10.32;6.28;;;23.70;99.90;;;;;;4998528;28;20058;-72
2023/06/21 07:40:38;;;;;;;10.00;6.75;;;23.70;99.90;;;;;;4998649;28;20033;-72
2023/06/21 07:43:05;;;;;;;10.45;6.47;;;23.60;99.90;;;;;;4997872;28;20049;-72
2023/06/21 07:45:31;;;;;;;9.55;6.43;;;23.50;99.90;;;;;;4998348;28;20022;-72
2023/06/21 07:47:56;;;;;;;8.98;6.22;;;23.40;99.90;;;;;;4998766;28;20033;-72
2023/06/21 07:50:25;;;;;;;14.23;6.72;;;23.40;99.90;;;;;;4997692;28;20018;-72
2023/06/21 07:52:50;;;;;;;9.65;6.10;;;23.30;99.90;;;;;;4997725;28;20031;-69
2023/06/21 07:55:16;;;;;;;13.80;7.15;;;23.20;99.90;;;;;;4997892;28;20034;-69
2023/06/21 07:57:43;;;;;;;10.82;6.85;;;23.30;99.90;;;;;;4997473;28;20122;-69
2023/06/21 08:00:11;;;;;;;10.93;6.38;;;23.30;99.90;;;;;;4997861;28;20026;-69
2023/06/21 08:02:37;;;;;;;10.85;6.70;;;23.30;99.90;;;;;;4998030;28;20034;-69
2023/06/21 08:05:03;;;;;;;9.18;6.40;;;23.40;99.90;;;;;;4998231;28;20049;-69
2023/06/21 08:07:28;;;;;;;10.00;6.60;;;23.40;99.90;;;;;;4997370;28;20030;-70
2023/06/21 08:09:54;;;;;;;10.27;6.90;;;23.50;99.90;;;;;;4997732;28;20018;-69
2023/06/21 08:12:20;;;;;;;12.98;7.15;;;23.50;99.90;;;;;;4997735;28;20034;-69
2023/06/21 08:14:45;;;;;;;9.50;6.95;;;23.60;99.90;;;;;;4997817;28;20129;-70
2023/06/21 08:17:11;;;;;;;11.27;6.60;;;23.60;99.90;;;;;;4997593;28;20038;-71
2023/06/21 08:19:36;;;;;;;10.13;6.28;;;23.80;99.90;;;;;;4997636;28;20034;-72
2023/06/21 08:22:02;;;;;;;10.00;7.57;;;23.90;99.90;;;;;;4997041;28;20038;-72
2023/06/21 08:24:27;;;;;;;11.30;7.18;;;24.10;99.90;;;;;;4997281;28;20027;-72
2023/06/21 08:26:53;;;;;;;10.60;6.78;;;24.20;99.90;;;;;;4997602;28;20085;-72
2023/06/21 08:29:18;;;;;;;11.90;6.55;;;24.30;99.90;;;;;;4998121;28;20049;-72
2023/06/21 08:31:44;;;;;;;8.32;6.18;;;24.40;99.90;;;;;;4997294;28;20109;-72
2023/06/21 08:34:09;;;;;;;10.88;5.55;;;24.50;99.90;;;;;;4997217;28;20057;-71
2023/06/21 08:36:35;;;;;;;9.25;6.10;;;24.60;99.90;;;;;;4997167;28;20116;-71
2023/06/21 08:39:00;;;;;;;8.55;5.75;;;24.70;99.90;;;;;;4996822;28;20026;-71
2023/06/21 08:41:26;;;;;;;9.38;6.43;;;24.70;99.90;;;;;;4997107;28;20022;-71
2023/06/21 08:43:52;;;;;;;7.82;5.57;;;24.90;99.90;;;;;;4996665;28;20081;-71
2023/06/21 08:46:20;;;;;;;9.05;5.63;;;24.80;99.90;;;;;;4997504;28;20034;-71
2023/06/21 08:48:50;;;;;;;8.65;5.72;;;24.90;99.90;;;;;;4997268;28;20030;-71
2023/06/21 08:51:16;;;;;;;9.40;5.82;;;24.90;99.90;;;;;;4997142;28;20023;-71
2023/06/21 08:53:49;;;;;;;8.32;6.07;;;24.80;99.90;;;;;;4996906;28;20129;-71
2023/06/21 08:56:22;;;;;;;11.35;5.72;;;24.90;99.90;;;;;;4997363;28;20030;-71
2023/06/21 08:59:06;;;;;;;7.53;5.30;;;25.10;99.90;;;;;;4997458;28;20113;-71
2023/06/21 09:01:49;;;;;;;8.82;5.53;;;25.30;99.90;;;;;;4997364;28;20027;-71
2023/06/21 09:04:16;;;;;;;11.18;6.57;;;25.20;99.90;;;;;;4997316;28;20030;-71
2023/06/21 09:06:43;;;;;;;9.32;5.32;;;25.50;99.90;;;;;;4996910;28;20033;-71
2023/06/21 09:09:11;;;;;;;7.50;5.38;;;25.60;99.90;;;;;;4996916;28;20023;-71
2023/06/21 09:11:40;;;;;;;10.60;6.18;;;25.60;99.90;;;;;;4996849;28;20019;-71
2023/06/21 09:14:07;;;;;;;9.32;5.40;;;25.50;99.90;;;;;;4997347;28;20076;-73
2023/06/21 09:16:33;;;;;;;9.05;5.60;;;25.50;99.90;;;;;;4996660;28;20058;-73
2023/06/21 09:18:59;;;;;;;8.80;5.80;;;25.80;99.90;;;;;;4999793;28;20117;-73
2023/06/21 09:21:25;;;;;;;9.07;6.28;;;25.80;99.90;;;;;;5001144;28;20061;-73
2023/06/21 09:23:50;;;;;;;12.30;5.60;;;25.70;99.90;;;;;;5000383;28;20026;-73
2023/06/21 09:26:16;;;;;;;6.07;4.82;;;25.80;99.90;;;;;;5000974;28;20065;-73
2023/06/21 09:28:43;;;;;;;5.97;4.85;;;26.00;99.90;;;;;;5001146;28;20035;-73
2023/06/21 09:31:09;;;;;;;6.90;5.38;;;26.10;99.90;;;;;;5001195;28;20022;-73
2023/06/21 09:33:36;;;;;;;7.78;5.35;;;26.10;99.90;;;;;;5000416;28;20022;-73
2023/06/21 09:36:06;;;;;;;10.15;5.95;;;26.00;99.90;;;;;;5000283;28;20034;-73
2023/06/21 09:38:33;;;;;;;7.63;5.18;;;26.20;99.90;;;;;;5001008;28;20117;-73
2023/06/21 09:41:02;;;;;;;7.60;4.60;;;26.20;99.90;;;;;;5000984;28;20057;-73
2023/06/21 09:43:28;;;;;;;8.23;4.93;;;26.40;99.90;;;;;;5000628;28;20098;-73
2023/06/21 09:46:04;;;;;;;8.10;4.55;;;26.50;99.90;;;;;;4999875;28;20053;-73
2023/06/21 09:48:37;;;;;;;6.93;5.35;;;26.60;99.90;;;;;;5000899;28;20023;-73
2023/06/21 09:51:05;;;;;;;6.88;5.03;;;26.70;99.90;;;;;;4999981;28;20025;-73
2023/06/21 09:53:31;;;;;;;7.07;5.35;;;26.80;99.90;;;;;;4999816;28;20113;-73
2023/06/21 09:55:57;;;;;;;7.60;4.90;;;26.70;99.90;;;;;;4999720;28;20034;-73
2023/06/21 09:58:23;;;;;;;12.43;5.22;;;26.70;99.90;;;;;;4999884;28;20026;-73
2023/06/21 10:00:49;;;;;;;13.13;4.85;;;26.80;99.90;;;;;;5000405;28;20033;-73
2023/06/21 10:03:14;;;;;;;7.35;5.15;;;26.80;99.90;;;;;;4999705;28;20030;-73
2023/06/21 10:05:57;;;;;;;7.85;4.88;;;26.90;99.90;;;;;;4999942;28;20022;-73
2023/06/21 10:08:32;;;;;;;6.90;4.35;;;27.00;99.90;;;;;;4999966;28;20022;-73
2023/06/21 10:10:57;;;;;;;7.53;4.18;;;27.10;99.90;;;;;;5000566;28;20080;-73
2023/06/21 10:13:30;;;;;;;6.78;4.38;;;27.10;99.90;;;;;;4999766;28;20026;-73
2023/06/21 10:15:56;;;;;;;6.78;4.13;;;27.20;99.90;;;;;;4999960;28;20030;-73
2023/06/21 10:18:23;;;;;;;5.15;4.18;;;27.30;99.90;;;;;;4999620;28;20026;-73
2023/06/21 10:20:54;;;;;;;6.55;4.50;;;27.30;99.90;;;;;;5000118;28;20027;-73
2023/06/21 10:23:21;;;;;;;9.75;4.20;;;27.50;99.90;;;;;;5000145;28;20026;-73
2023/06/21 10:25:48;;;;;;;9.25;4.90;;;27.70;99.90;;;;;;4999482;28;20037;-73
2023/06/21 10:28:17;;;;;;;6.88;4.40;;;27.80;99.90;;;;;;4999505;28;20079;-73
2023/06/21 10:30:44;;;;;;;5.88;4.43;;;28.00;99.90;;;;;;4999012;28;20023;-73
2023/06/21 10:33:10;;;;;;;7.47;4.55;;;28.20;99.90;;;;;;4999460;28;20040;-73
2023/06/21 10:35:42;;;;;;;5.80;4.38;;;28.20;99.90;;;;;;4999289;28;20117;-73
2023/06/21 10:38:11;;;;;;;6.53;5.13;;;28.30;99.90;;;;;;4999469;28;20098;-73
2023/06/21 10:40:37;;;;;;;6.03;4.40;;;28.60;99.90;;;;;;5000003;28;20030;-73
2023/06/21 10:43:03;;;;;;;6.32;4.75;;;28.90;99.90;;;;;;4999606;28;20026;-73
2023/06/21 10:45:30;;;;;;;6.93;4.30;;;29.10;99.90;;;;;;4999534;28;20075;-73
2023/06/21 10:47:56;;;;;;;9.88;5.28;;;29.70;99.90;;;;;;4999667;28;20077;-73
2023/06/21 10:50:24;;;;;;;7.13;4.70;;;30.00;99.90;;;;;;4999643;28;20058;-73
2023/06/21 10:52:58;;;;;;;7.07;5.18;;;30.10;99.90;;;;;;4998862;28;20059;-73
2023/06/21 10:55:23;;;;;;;6.38;5.20;;;30.00;99.90;;;;;;4999528;28;20030;-73
2023/06/21 10:57:53;;;;;;;7.45;5.40;;;30.00;99.90;;;;;;4999065;28;20065;-73
2023/06/21 11:00:23;;;;;;;8.10;4.97;;;30.10;99.90;;;;;;4999653;28;20035;-73
2023/06/21 11:02:49;;;;;;;8.33;5.60;;;29.80;99.90;;;;;;4999057;28;20031;-74
2023/06/21 11:05:19;;;;;;;8.23;5.03;;;29.60;99.90;;;;;;4999368;28;20094;-73
2023/06/21 11:08:05;;;;;;;8.48;5.10;;;29.30;99.90;;;;;;4998890;28;20026;-73
2023/06/21 11:10:41;;;;;;;8.90;5.18;;;28.90;99.90;;;;;;4998562;28;20026;-73
2023/06/21 11:13:08;;;;;;;7.53;4.60;;;28.60;99.90;;;;;;4998480;28;20034;-70
2023/06/21 11:15:34;;;;;;;6.30;4.68;;;28.60;99.90;;;;;;4998823;28;20062;-70
2023/06/21 11:18:07;;;;;;;5.30;4.80;;;29.00;99.90;;;;;;4999138;28;20030;-70
2023/06/21 11:20:57;;;;;;;11.32;5.45;;;29.40;99.90;;;;;;4998679;28;20022;-70
2023/06/21 11:23:23;;;;;;;8.60;5.15;;;30.40;99.90;;;;;;4998909;28;20030;-70
2023/06/21 11:25:53;;;;;;;10.50;5.50;;;30.60;99.90;;;;;;4998257;28;20022;-70
2023/06/21 11:28:19;;;;;;;7.65;5.25;;;30.50;99.90;;;;;;4998612;28;20022;-70
2023/06/21 11:31:06;;;;;;;8.95;5.65;;;30.60;99.90;;;;;;4998427;28;20029;-70
2023/06/21 11:33:52;;;;;;;5.90;5.30;;;30.90;99.90;;;;;;4999015;28;20114;-70
2023/06/21 11:36:23;;;;;;;5.25;4.75;;;31.10;99.90;;;;;;4998366;28;20073;-73
2023/06/21 11:39:04;;;;;;;7.40;5.45;;;31.60;99.90;;;;;;4998862;28;20026;-70
2023/06/21 11:41:36;;;;;;;;;;;31.80;99.90;;;;;;4998563;28;20026;-70
2023/06/21 11:44:02;;;;;;;8.10;4.65;;;32.30;99.90;;;;;;4998451;28;19932;-72
2023/06/21 11:46:31;;;;;;;6.80;4.93;;;32.60;99.90;;;;;;4997963;28;20022;-72
2023/06/21 11:49:01;;;;;;;5.82;5.07;;;32.80;99.90;;;;;;4997780;28;20023;-73
2023/06/21 11:51:30;;;;;;;5.78;4.38;;;32.90;99.90;;;;;;4998440;28;20018;-72
2023/06/21 11:53:56;;;;;;;5.95;5.13;;;33.00;99.90;;;;;;4998002;28;20161;-74
2023/06/21 11:56:22;;;;;;;6.72;4.68;;;32.90;99.90;;;;;;4997629;28;20030;-74
2023/06/21 11:58:51;;;;;;;8.23;4.80;;;32.50;99.90;;;;;;4997962;28;20106;-74
2023/06/21 12:01:16;;;;;;;7.85;5.05;;;31.90;99.90;;;;;;4997702;28;20026;-74
2023/06/21 12:03:42;;;;;;;7.43;4.30;;;32.20;99.90;;;;;;4997990;28;20064;-72
2023/06/21 12:06:08;;;;;;;8.10;4.82;;;32.20;99.90;;;;;;4998000;28;20023;-72
2023/06/21 12:08:37;;;;;;;6.30;4.55;;;32.00;99.90;;;;;;4997760;28;20026;-73
2023/06/21 12:11:05;;;;;;;5.90;4.97;;;31.90;99.90;;;;;;4997669;28;20072;-72
2023/06/21 12:13:33;;;;;;;6.00;4.82;;;31.80;99.90;;;;;;4998041;28;20060;-73
2023/06/21 12:16:06;;;;;;;8.68;5.15;;;32.10;99.90;;;;;;4998086;28;20027;-72
2023/06/21 12:18:34;;;;;;;5.10;4.45;;;32.10;99.90;;;;;;4997647;28;20072;-72
2023/06/21 12:21:02;;;;;;;7.13;4.95;;;31.80;99.90;;;;;;4996899;28;20150;-72
2023/06/21 12:23:30;;;;;;;7.93;4.80;;;31.50;99.90;;;;;;4996907;28;20056;-73
2023/06/21 12:26:00;;;;;;;5.88;5.15;;;30.90;99.90;;;;;;4997551;28;20033;-73
2023/06/21 12:28:26;;;;;;;7.13;4.13;;;30.40;99.90;;;;;;4997186;28;20032;-73
2023/06/21 12:31:06;;;;;;;7.93;4.28;;;30.50;99.90;;;;;;4997117;28;20032;-72
2023/06/21 12:33:34;;;;;;;8.95;4.47;;;31.10;99.90;;;;;;4997867;28;20034;-73
2023/06/21 12:36:24;;;;;;;5.90;4.47;;;31.20;99.90;;;;;;4997243;28;20125;-72
2023/06/21 12:39:01;;;;;;;5.97;4.18;;;31.00;99.90;;;;;;4997786;28;20037;-72
2023/06/21 12:41:29;;;;;;;7.25;4.20;;;31.00;99.90;;;;;;4997721;28;20026;-72
2023/06/21 12:43:59;;;;;;;6.18;4.57;;;31.40;98.40;;;;;;4997719;28;20027;-72
2023/06/21 12:46:26;;;;;;;6.40;4.30;;;31.50;98.50;;;;;;4997698;28;20045;-72
2023/06/21 12:48:57;;;;;;;6.60;4.80;;;31.20;98.60;;;;;;4997098;28;20086;-72